Time;durP1;ratioP1;P1;durP2;ratioP2;P2;SDS_P1;SDS_P2;PMS_P1;PMS_P2;Temp;Humidity;BMP_temperature;BMP_pressure;BME280_temperature;BME280_humidity;BME280_pressure;Samples;Min_cycle;Max_cycle;Signal;HPM_P1;HPM_P2
2023/04/17 00:02:24;;;;;;;2.78;1.73;;;;;;;19.25;49.21;100917.44;4863475;29;20049;-59
2023/04/17 00:04:52;;;;;;;2.88;1.67;;;;;;;19.25;49.22;100917.44;4863332;29;20057;-59
2023/04/17 00:07:21;;;;;;;4.53;1.85;;;;;;;19.24;49.20;100912.16;4863412;29;20404;-59
2023/04/17 00:09:49;;;;;;;3.25;1.80;;;;;;;19.23;49.23;100911.31;4863360;29;20069;-59
2023/04/17 00:12:16;;;;;;;3.22;2.10;;;;;;;19.25;49.28;100905.84;4863546;29;20508;-59
2023/04/17 00:14:44;;;;;;;3.00;1.40;;;;;;;19.24;49.22;100912.16;4863459;29;20046;-59
2023/04/17 00:17:11;;;;;;;4.65;2.25;;;;;;;19.24;49.27;100907.69;4863353;29;20053;-59
2023/04/17 00:19:38;;;;;;;4.28;1.80;;;;;;;19.24;49.19;100915.72;4863410;29;20519;-59
2023/04/17 00:22:06;;;;;;;4.40;1.85;;;;;;;19.24;49.30;100907.69;4863253;29;20049;-59
2023/04/17 00:24:33;;;;;;;3.33;1.73;;;;;;;19.24;49.26;100906.78;4863202;29;20049;-59
2023/04/17 00:27:01;;;;;;;3.40;1.73;;;;;;;19.24;49.25;100904.13;4863278;29;20060;-59
2023/04/17 00:29:28;;;;;;;3.83;1.92;;;;;;;19.24;49.23;100902.31;4861731;29;20502;-59
2023/04/17 00:31:55;;;;;;;2.63;1.30;;;;;;;19.23;49.44;100894.38;4863154;29;20057;-59
2023/04/17 00:34:23;;;;;;;2.85;1.35;;;;;;;19.23;49.18;100908.63;4863090;29;20526;-59
2023/04/17 00:36:50;;;;;;;3.00;1.55;;;;;;;19.23;49.34;100900.59;4863013;29;20057;-59
2023/04/17 00:39:17;;;;;;;5.50;1.88;;;;;;;19.22;49.19;100898.88;4863137;29;20060;-59
2023/04/17 00:41:45;;;;;;;5.13;1.80;;;;;;;19.22;49.19;100898.88;4862082;29;20058;-59
2023/04/17 00:44:12;;;;;;;3.80;1.67;;;;;;;19.22;49.18;100893.50;4863071;29;20060;-59
2023/04/17 00:46:40;;;;;;;3.70;1.75;;;;;;;19.23;49.21;100899.72;4861901;29;20061;-59
2023/04/17 00:49:07;;;;;;;4.70;1.60;;;;;;;19.22;49.21;100896.19;4861857;29;20057;-59
2023/04/17 00:51:35;;;;;;;3.25;1.67;;;;;;;19.22;49.11;100898.88;4862782;29;20056;-59
2023/04/17 00:54:03;;;;;;;4.88;1.80;;;;;;;19.21;49.10;100897.19;4862802;29;20519;-59
2023/04/17 00:56:32;;;;;;;3.58;1.95;;;;;;;19.21;49.12;100897.19;4861784;29;20072;-59
2023/04/17 00:59:00;;;;;;;4.07;1.48;;;;;;;19.21;49.06;100890.97;4862688;29;20057;-59
2023/04/17 01:01:28;;;;;;;3.72;1.60;;;;;;;19.20;48.96;100887.44;4862893;29;20069;-59
2023/04/17 01:03:58;;;;;;;2.58;1.42;;;;;;;19.21;48.92;100888.28;4863087;29;20065;-59
2023/04/17 01:06:26;;;;;;;4.25;1.67;;;;;;;19.21;49.11;100896.34;4863025;29;20061;-59
2023/04/17 01:08:54;;;;;;;4.72;2.20;;;;;;;19.21;49.00;100885.59;4861503;29;20488;-59
2023/04/17 01:11:21;;;;;;;3.05;1.58;;;;;;;19.20;48.80;100887.44;4862346;29;20073;-59
2023/04/17 01:13:49;;;;;;;3.38;1.60;;;;;;;19.20;48.92;100895.50;4861334;29;20049;-59
2023/04/17 01:16:18;;;;;;;3.08;1.70;;;;;;;19.20;48.94;100889.25;4862627;29;20425;-59
2023/04/17 01:18:47;;;;;;;3.22;1.50;;;;;;;19.20;49.00;100891.94;4862781;29;20057;-59
2023/04/17 01:21:15;;;;;;;3.38;1.65;;;;;;;19.19;48.79;100885.72;4861228;29;20061;-59
2023/04/17 01:23:50;;;;;;;2.40;1.45;;;;;;;19.19;48.94;100888.41;4876220;29;20068;-59
2023/04/17 01:26:23;;;;;;;3.60;1.33;;;;;;;19.19;48.91;100884.88;4861258;29;20060;-59
2023/04/17 01:28:53;;;;;;;3.92;1.75;;;;;;;19.18;48.74;100881.34;4862521;29;20061;-59
2023/04/17 01:31:22;;;;;;;3.55;1.75;;;;;;;19.19;48.82;100879.50;4876087;29;20064;-59
2023/04/17 01:33:50;;;;;;;3.65;1.40;;;;;;;19.18;48.73;100885.88;4861088;29;20061;-59
2023/04/17 01:36:18;;;;;;;3.30;1.70;;;;;;;19.17;48.93;100879.66;4861996;29;20046;-59
2023/04/17 01:38:45;;;;;;;2.97;1.67;;;;;;;19.17;48.65;100871.59;4862287;29;20049;-59
2023/04/17 01:41:13;;;;;;;1.90;1.13;;;;;;;19.17;48.85;100868.06;4861704;29;20061;-59
2023/04/17 01:43:43;;;;;;;2.63;1.42;;;;;;;19.18;48.76;100869.75;4862069;29;20057;-59
2023/04/17 01:46:11;;;;;;;2.63;1.38;;;;;;;19.17;48.88;100873.44;4861970;29;20057;-59
2023/04/17 01:48:38;;;;;;;2.63;1.50;;;;;;;19.17;48.74;100873.44;4860788;29;20060;-59
2023/04/17 01:51:06;;;;;;;4.40;1.75;;;;;;;19.16;48.77;100864.53;4860525;29;20061;-58
2023/04/17 01:53:34;;;;;;;3.63;1.50;;;;;;;19.16;48.77;100864.53;4861591;29;20049;-59
2023/04/17 01:56:01;;;;;;;2.40;1.40;;;;;;;19.15;48.85;100870.84;4861819;29;20388;-59
2023/04/17 01:58:30;;;;;;;4.43;1.58;;;;;;;19.17;48.68;100879.66;4875590;29;20532;-59
2023/04/17 02:00:58;;;;;;;3.08;1.42;;;;;;;19.16;48.79;100866.34;4860613;29;20381;-59
2023/04/17 02:03:25;;;;;;;2.65;1.35;;;;;;;19.16;48.72;100863.66;4861507;29;20061;-59
2023/04/17 02:05:53;;;;;;;3.20;1.55;;;;;;;19.16;48.69;100867.22;4861561;29;20057;-59
2023/04/17 02:08:21;;;;;;;3.38;1.10;;;;;;;19.14;48.77;100862.94;4861595;29;20050;-59
2023/04/17 02:10:48;;;;;;;3.03;1.48;;;;;;;19.14;48.65;100858.44;4860570;29;20480;-59
2023/04/17 02:13:16;;;;;;;2.17;1.13;;;;;;;19.15;48.76;100861.97;4860438;29;20053;-59
2023/04/17 02:15:43;;;;;;;1.90;0.90;;;;;;;19.14;48.65;100866.47;4861632;29;20053;-59
2023/04/17 02:18:12;;;;;;;3.22;1.30;;;;;;;19.14;48.44;100858.44;4861330;29;20054;-59
2023/04/17 02:20:39;;;;;;;2.22;1.30;;;;;;;19.13;48.38;100862.09;4861435;29;20457;-59
2023/04/17 02:23:07;;;;;;;2.78;1.38;;;;;;;19.14;48.60;100860.25;4860321;29;20069;-59
2023/04/17 02:25:35;;;;;;;2.35;1.10;;;;;;;19.13;48.59;100856.72;4861632;29;20072;-59
2023/04/17 02:28:03;;;;;;;2.33;1.20;;;;;;;19.13;48.60;100861.25;4874923;29;20392;-59
2023/04/17 02:30:30;;;;;;;3.17;1.60;;;;;;;19.12;48.57;100852.34;4860159;29;20053;-59
2023/04/17 02:32:58;;;;;;;2.15;1.27;;;;;;;19.13;48.54;100858.56;4860130;29;20056;-59
2023/04/17 02:35:29;;;;;;;2.72;1.40;;;;;;;19.12;48.59;100860.41;4860179;29;20061;-59
2023/04/17 02:37:57;;;;;;;4.35;1.60;;;;;;;19.12;48.33;100865.78;4860340;29;20046;-59
2023/04/17 02:40:26;;;;;;;2.78;1.48;;;;;;;19.11;48.44;100872.09;4860258;29;20053;-59
2023/04/17 02:42:59;;;;;;;3.40;1.60;;;;;;;19.12;48.47;100876.50;4874972;29;20053;-59
2023/04/17 02:45:28;;;;;;;3.40;1.40;;;;;;;19.12;48.41;100872.94;4860138;29;20060;-59
2023/04/17 02:47:55;;;;;;;3.03;1.48;;;;;;;19.11;48.30;100872.09;4861014;29;20045;-59
2023/04/17 02:50:23;;;;;;;2.92;1.45;;;;;;;19.11;48.31;100869.41;4860274;29;20084;-59
2023/04/17 02:53:01;;;;;;;2.42;1.58;;;;;;;19.10;48.45;100878.44;4863512;29;20061;-59
2023/04/17 02:55:29;;;;;;;2.25;1.15;;;;;;;19.11;48.46;100874.78;4864053;29;20416;-59
2023/04/17 02:57:56;;;;;;;2.53;1.20;;;;;;;19.10;48.30;100867.72;4863771;29;20050;-59
2023/04/17 03:00:25;;;;;;;2.25;1.15;;;;;;;19.10;48.39;100873.09;4864872;29;20050;-59
2023/04/17 03:02:52;;;;;;;2.05;0.93;;;;;;;19.09;48.29;100871.38;4863731;29;20057;-59
2023/04/17 03:05:22;;;;;;;1.88;0.90;;;;;;;19.09;48.38;100882.13;4865189;29;20064;-59
2023/04/17 03:07:50;;;;;;;2.80;1.25;;;;;;;19.09;48.38;100876.75;4863677;29;20084;-59
2023/04/17 03:10:18;;;;;;;2.97;1.50;;;;;;;19.09;48.38;100887.50;4863275;29;20485;-59
2023/04/17 03:12:45;;;;;;;2.22;1.13;;;;;;;19.09;48.47;100881.28;4865018;29;20061;-59
2023/04/17 03:15:13;;;;;;;1.80;0.90;;;;;;;19.09;48.31;100879.44;4863539;29;20057;-59
2023/04/17 03:17:40;;;;;;;3.38;1.48;;;;;;;19.09;48.43;100883.97;4864446;29;20042;-59
2023/04/17 03:20:08;;;;;;;1.98;1.00;;;;;;;19.08;48.40;100885.78;4863541;29;20400;-59
2023/04/17 03:22:35;;;;;;;4.25;1.40;;;;;;;19.07;48.43;100876.03;4864440;29;20052;-59
2023/04/17 03:25:05;;;;;;;2.30;1.08;;;;;;;19.08;48.24;100882.22;4878023;29;20408;-59
2023/04/17 03:27:45;;;;;;;2.08;1.20;;;;;;;19.08;48.45;100880.44;4863138;29;20065;-59
2023/04/17 03:30:14;;;;;;;2.50;1.52;;;;;;;19.08;48.53;100879.53;4878080;29;20064;-59
2023/04/17 03:32:45;;;;;;;2.45;1.17;;;;;;;19.09;48.52;100873.22;4863357;29;20054;-59
2023/04/17 03:35:13;;;;;;;2.53;1.27;;;;;;;19.09;48.60;100871.38;4864293;29;20057;-59
2023/04/17 03:37:41;;;;;;;2.13;1.17;;;;;;;19.09;48.55;100876.75;4863131;29;20051;-59
2023/04/17 03:40:11;;;;;;;2.38;1.05;;;;;;;19.07;48.47;100873.34;4863092;29;20060;-59
2023/04/17 03:42:39;;;;;;;1.65;0.85;;;;;;;19.07;48.58;100870.66;4862873;29;20057;-59
2023/04/17 03:45:08;;;;;;;2.90;1.20;;;;;;;19.09;48.48;100873.22;4864046;29;20049;-59
2023/04/17 03:47:35;;;;;;;2.88;1.10;;;;;;;19.08;48.45;100877.75;4863035;29;20439;-59
2023/04/17 03:50:03;;;;;;;2.08;1.05;;;;;;;19.07;48.43;100869.81;4862997;29;20057;-59
2023/04/17 03:52:35;;;;;;;3.08;1.13;;;;;;;19.07;48.51;100875.16;4862981;29;20053;-59
2023/04/17 03:55:05;;;;;;;1.83;0.93;;;;;;;19.09;48.44;100886.66;4862857;29;20049;-59
2023/04/17 03:57:32;;;;;;;3.28;1.10;;;;;;;19.08;48.51;100888.47;4862941;29;20069;-59
2023/04/17 03:59:59;;;;;;;2.45;0.93;;;;;;;19.06;48.53;100887.75;4862506;29;20057;-59
2023/04/17 04:02:33;;;;;;;1.83;0.98;;;;;;;19.06;48.49;100882.38;4869018;29;20057;-59
2023/04/17 04:05:01;;;;;;;3.45;1.35;;;;;;;19.07;48.46;100883.22;4862271;29;20500;-59
2023/04/17 04:07:29;;;;;;;2.67;1.40;;;;;;;19.07;48.43;100883.22;4877555;29;20057;-59
2023/04/17 04:09:57;;;;;;;4.38;1.38;;;;;;;19.06;48.31;100886.91;4862579;29;20054;-59
2023/04/17 04:12:25;;;;;;;2.38;1.15;;;;;;;19.05;48.25;100877.16;4862582;29;20400;-59
2023/04/17 04:14:52;;;;;;;4.32;1.00;;;;;;;19.05;48.06;100887.88;4862503;29;20516;-59
2023/04/17 04:17:20;;;;;;;1.63;0.70;;;;;;;19.04;48.25;100887.03;4862554;29;20060;-59
2023/04/17 04:19:47;;;;;;;2.80;1.10;;;;;;;19.05;48.15;100885.19;4862565;29;20488;-59
2023/04/17 04:22:15;;;;;;;2.72;0.95;;;;;;;19.05;48.14;100886.03;4862496;29;20053;-59
2023/04/17 04:24:52;;;;;;;1.55;0.70;;;;;;;19.04;48.19;100887.03;4862365;29;20061;-59
2023/04/17 04:27:26;;;;;;;2.33;1.25;;;;;;;19.04;48.15;100884.34;4862328;29;20046;-59
2023/04/17 04:29:57;;;;;;;1.90;1.00;;;;;;;19.04;48.20;100887.03;4862264;29;20060;-59
2023/04/17 04:32:27;;;;;;;2.55;0.90;;;;;;;19.02;48.19;100879.09;4877232;29;20397;-59
2023/04/17 04:34:57;;;;;;;2.42;0.98;;;;;;;19.03;47.97;100888.00;4863682;29;20064;-59
2023/04/17 04:37:28;;;;;;;1.70;0.73;;;;;;;19.03;48.30;100885.31;4863234;29;20045;-59
2023/04/17 04:40:01;;;;;;;2.08;0.88;;;;;;;19.03;48.11;100885.31;4862347;29;20409;-59
2023/04/17 04:42:29;;;;;;;2.38;0.90;;;;;;;19.02;48.11;100886.28;4877070;29;20076;-59
2023/04/17 04:45:09;;;;;;;1.67;0.85;;;;;;;19.02;48.09;100897.03;4862053;29;20062;-59
2023/04/17 04:47:37;;;;;;;3.20;1.10;;;;;;;19.01;48.04;100884.59;4863596;29;20444;-59
2023/04/17 04:50:05;;;;;;;1.90;0.88;;;;;;;19.01;48.15;100896.19;4863451;29;20057;-59
2023/04/17 04:52:32;;;;;;;2.15;1.10;;;;;;;19.02;48.00;100894.34;4876763;29;20057;-59
2023/04/17 04:55:05;;;;;;;1.70;0.90;;;;;;;19.00;48.07;100891.81;4861811;29;20057;-59
2023/04/17 04:57:35;;;;;;;2.03;1.00;;;;;;;19.00;48.11;100890.94;4876478;29;20432;-60
2023/04/17 05:00:05;;;;;;;2.65;1.15;;;;;;;19.00;48.05;100891.81;4861693;29;20061;-58
2023/04/17 05:02:38;;;;;;;1.50;0.75;;;;;;;19.00;47.98;100896.31;4876626;29;20057;-59
2023/04/17 05:05:09;;;;;;;2.85;0.88;;;;;;;19.00;48.04;100899.00;4861711;29;20400;-59
2023/04/17 05:07:37;;;;;;;2.95;0.95;;;;;;;19.00;48.22;100896.31;4861642;29;20046;-59
2023/04/17 05:10:08;;;;;;;2.40;1.08;;;;;;;19.00;47.88;100890.94;4861386;29;20064;-59
2023/04/17 05:12:40;;;;;;;1.52;0.75;;;;;;;18.99;47.92;100900.81;4876434;29;20064;-59
2023/04/17 05:15:09;;;;;;;2.38;1.20;;;;;;;19.00;48.19;100909.72;4876328;29;20384;-59
2023/04/17 05:17:37;;;;;;;2.05;0.90;;;;;;;19.00;47.87;100917.78;4861521;29;20045;-59
2023/04/17 05:20:06;;;;;;;1.90;0.80;;;;;;;18.99;48.04;100922.28;4861414;29;20049;-59
2023/04/17 05:22:37;;;;;;;1.90;0.93;;;;;;;18.99;47.85;100924.09;4861457;29;20057;-59
2023/04/17 05:25:10;;;;;;;2.13;1.30;;;;;;;18.99;47.88;100922.28;4862862;29;20065;-59
2023/04/17 05:27:37;;;;;;;3.08;1.10;;;;;;;18.98;48.04;100923.25;4861217;29;20061;-59
2023/04/17 05:30:06;;;;;;;1.98;1.13;;;;;;;18.99;48.12;100918.75;4861396;29;20050;-59
2023/04/17 05:32:34;;;;;;;3.00;0.90;;;;;;;18.99;48.14;100921.41;4861278;29;20050;-59
2023/04/17 05:35:15;;;;;;;2.88;0.90;;;;;;;18.98;48.05;100919.72;4861327;29;20087;-58
2023/04/17 05:37:42;;;;;;;1.60;0.70;;;;;;;18.98;47.95;100919.72;4861183;29;20555;-59
2023/04/17 05:40:10;;;;;;;3.17;1.27;;;;;;;18.98;47.81;100919.72;4861198;29;20061;-59
2023/04/17 05:42:38;;;;;;;3.05;0.90;;;;;;;18.97;48.23;100928.75;4860990;29;20060;-59
2023/04/17 05:45:05;;;;;;;2.22;1.27;;;;;;;18.97;47.83;100926.94;4861001;29;20076;-59
2023/04/17 05:47:33;;;;;;;3.00;1.33;;;;;;;18.98;47.90;100927.78;4861969;29;20057;-59
2023/04/17 05:50:00;;;;;;;2.42;1.00;;;;;;;18.97;47.89;100923.41;4860907;29;20054;-59
2023/04/17 05:52:28;;;;;;;2.20;0.95;;;;;;;18.97;47.99;100928.75;4860949;29;20488;-59
2023/04/17 05:54:56;;;;;;;2.03;1.10;;;;;;;18.97;48.03;100923.41;4861856;29;20060;-59
2023/04/17 05:57:24;;;;;;;2.47;1.20;;;;;;;18.96;47.96;100925.22;4860600;29;20053;-59
2023/04/17 05:59:52;;;;;;;4.35;0.90;;;;;;;18.96;47.86;100921.69;4861165;29;20053;-59
2023/04/17 06:02:19;;;;;;;2.80;1.20;;;;;;;18.97;47.99;100923.41;4860774;29;20061;-59
2023/04/17 06:04:47;;;;;;;2.15;1.00;;;;;;;18.97;48.13;100931.44;4875469;29;20519;-59
2023/04/17 06:07:16;;;;;;;2.40;1.10;;;;;;;18.97;47.66;100928.75;4860413;29;20057;-59
2023/04/17 06:09:44;;;;;;;2.63;0.93;;;;;;;18.97;48.02;100934.97;4861358;29;20480;-59
2023/04/17 06:12:14;;;;;;;2.67;1.10;;;;;;;18.97;47.94;100934.97;4861287;29;20053;-59
2023/04/17 06:14:43;;;;;;;3.67;0.95;;;;;;;18.97;48.08;100928.75;4861994;29;20396;-59
2023/04/17 06:17:11;;;;;;;2.20;0.95;;;;;;;18.97;48.18;100936.81;4860645;29;20056;-59
2023/04/17 06:19:38;;;;;;;3.95;1.00;;;;;;;18.96;48.20;100944.00;4860443;29;20519;-59
2023/04/17 06:22:06;;;;;;;3.45;1.20;;;;;;;18.95;48.19;100944.13;4860391;29;20065;-59
2023/04/17 06:24:33;;;;;;;6.53;1.35;;;;;;;18.96;48.10;100954.75;4861227;29;20060;-59
2023/04/17 06:27:02;;;;;;;1.70;0.93;;;;;;;18.97;48.17;100955.59;4859929;29;20064;-59
2023/04/17 06:29:30;;;;;;;3.55;1.13;;;;;;;18.96;48.17;100949.38;4860527;29;20408;-59
2023/04/17 06:31:57;;;;;;;2.72;1.17;;;;;;;18.96;48.26;100951.22;4860338;29;20061;-59
2023/04/17 06:34:26;;;;;;;3.47;1.27;;;;;;;18.98;48.26;100955.44;4875054;29;20061;-58
2023/04/17 06:36:54;;;;;;;2.92;1.02;;;;;;;18.97;48.39;100958.28;4860187;29;20058;-59
2023/04/17 06:39:22;;;;;;;2.92;1.23;;;;;;;18.99;48.20;100950.94;4860260;29;20045;-59
2023/04/17 06:41:49;;;;;;;2.80;1.30;;;;;;;18.99;48.43;100958.97;4861272;29;20052;-59
2023/04/17 06:44:25;;;;;;;3.90;1.73;;;;;;;18.95;45.02;100958.38;4860290;29;20061;-62
2023/04/17 06:46:53;;;;;;;3.67;1.40;;;;;;;18.81;43.53;100961.34;4875065;29;20065;-63
2023/04/17 06:49:21;;;;;;;4.40;1.73;;;;;;;18.66;43.92;100963.41;4860947;29;20061;-57
2023/04/17 06:51:51;;;;;;;3.65;1.75;;;;;;;18.52;43.76;100969.91;4860082;29;20081;-56
2023/04/17 06:54:19;;;;;;;6.28;1.70;;;;;;;18.40;43.30;100970.88;4861092;29;20060;-57
2023/04/17 06:56:46;;;;;;;8.38;2.17;;;;;;;18.26;42.82;100968.44;4860073;29;20056;-57
2023/04/17 06:59:14;;;;;;;4.50;2.00;;;;;;;18.16;43.15;100979.03;4859790;29;20049;-57
2023/04/17 07:01:41;;;;;;;4.70;2.60;;;;;;;18.03;43.23;100983.66;4860573;29;20052;-56
2023/04/17 07:04:09;;;;;;;4.70;2.42;;;;;;;17.89;43.15;100983.84;4860437;29;20116;-56
2023/04/17 07:06:38;;;;;;;4.40;2.05;;;;;;;17.73;43.74;100987.69;4859948;29;20056;-55
2023/04/17 07:09:05;;;;;;;3.88;2.47;;;;;;;17.63;44.14;100985.84;4860381;29;20053;-54
2023/04/17 07:11:33;;;;;;;5.93;2.58;;;;;;;17.55;45.09;100984.59;4844478;29;20057;-56
2023/04/17 07:14:00;;;;;;;3.80;2.28;;;;;;;17.48;45.37;101002.09;4860557;29;20053;-55
2023/04/17 07:16:27;;;;;;;3.20;2.33;;;;;;;17.43;45.99;101006.09;4860744;29;20049;-57
2023/04/17 07:18:55;;;;;;;4.47;2.28;;;;;;;17.36;45.63;101005.69;4860560;29;20050;-56
2023/04/17 07:21:22;;;;;;;3.63;2.05;;;;;;;17.37;45.90;101014.56;4860519;29;20512;-56
2023/04/17 07:23:49;;;;;;;3.40;1.98;;;;;;;17.46;46.20;101013.84;4860488;29;20057;-56
2023/04/17 07:26:16;;;;;;;5.15;2.10;;;;;;;17.55;46.54;101027.44;4860789;29;20057;-56
2023/04/17 07:28:44;;;;;;;5.85;1.77;;;;;;;17.66;46.12;101034.66;4860611;29;20045;-58
2023/04/17 07:31:11;;;;;;;3.28;1.58;;;;;;;17.76;46.41;101045.53;4844466;29;20054;-57
2023/04/17 07:33:39;;;;;;;3.35;1.40;;;;;;;17.84;46.61;101053.00;4860592;29;20050;-57
2023/04/17 07:36:10;;;;;;;4.63;1.95;;;;;;;17.90;46.53;101055.19;4845365;29;20038;-56
2023/04/17 07:38:37;;;;;;;3.47;1.50;;;;;;;17.97;46.90;101043.06;4843161;29;20042;-57
2023/04/17 07:41:07;;;;;;;3.05;1.65;;;;;;;18.01;46.60;101052.56;4845050;29;20046;-56
2023/04/17 07:43:34;;;;;;;3.90;1.85;;;;;;;18.05;46.27;101048.66;4845579;29;20058;-57
2023/04/17 07:46:01;;;;;;;4.05;1.77;;;;;;;18.10;46.33;101048.31;4845140;29;20049;-57
2023/04/17 07:48:30;;;;;;;3.00;1.70;;;;;;;18.13;46.39;101050.75;4843911;29;20065;-57
2023/04/17 07:51:00;;;;;;;2.33;1.48;;;;;;;18.15;46.18;101056.84;4845031;29;20050;-57
2023/04/17 07:53:28;;;;;;;3.97;2.13;;;;;;;18.17;46.19;101050.41;4845204;29;20054;-57
2023/04/17 07:55:57;;;;;;;4.53;1.73;;;;;;;18.19;46.01;101053.84;4845764;29;20054;-57
2023/04/17 07:58:25;;;;;;;3.65;2.20;;;;;;;18.21;46.19;101051.88;4845229;29;20392;-57
2023/04/17 08:00:53;;;;;;;4.03;2.13;;;;;;;18.20;46.39;101044.81;4843854;29;20068;-59
2023/04/17 08:03:20;;;;;;;6.63;2.10;;;;;;;18.22;46.50;101047.34;4845143;29;20115;-59
2023/04/17 08:05:52;;;;;;;3.28;1.80;;;;;;;18.24;46.81;101046.28;4844943;29;20053;-59
2023/04/17 08:08:22;;;;;;;3.63;2.05;;;;;;;18.25;46.91;101052.50;4844793;29;20084;-59
2023/04/17 08:10:50;;;;;;;2.85;1.48;;;;;;;18.27;46.94;101056.78;4844376;29;20057;-58
2023/04/17 08:13:17;;;;;;;3.88;1.55;;;;;;;18.30;47.06;101063.69;4845369;29;20057;-57
2023/04/17 08:15:46;;;;;;;4.57;1.40;;;;;;;18.32;47.08;101056.41;4862026;29;20057;-58
2023/04/17 08:18:14;;;;;;;5.28;1.23;;;;;;;18.35;47.05;101058.84;4862811;29;20050;-57
2023/04/17 08:20:41;;;;;;;5.40;1.70;;;;;;;18.37;46.96;101058.72;4861786;29;20076;-59
2023/04/17 08:23:09;;;;;;;7.15;1.70;;;;;;;18.38;47.03;101063.94;4863028;29;20511;-60
2023/04/17 08:25:36;;;;;;;4.30;1.58;;;;;;;18.40;47.07;101063.84;4863086;29;20053;-59
2023/04/17 08:28:04;;;;;;;5.22;1.50;;;;;;;18.41;47.07;101063.72;4863048;29;20424;-59
2023/04/17 08:30:31;;;;;;;4.18;1.48;;;;;;;18.42;47.09;101062.75;4862401;29;20049;-58
2023/04/17 08:32:58;;;;;;;4.55;1.63;;;;;;;18.45;47.27;101065.19;4863093;29;20053;-58
2023/04/17 08:35:26;;;;;;;5.65;1.40;;;;;;;18.44;47.26;101058.13;4863014;29;20064;-57
2023/04/17 08:37:55;;;;;;;3.85;1.50;;;;;;;18.46;47.26;101055.31;4863027;29;20404;-58
2023/04/17 08:40:25;;;;;;;3.28;1.60;;;;;;;18.47;47.28;101054.34;4862662;29;20057;-59
2023/04/17 08:42:53;;;;;;;3.63;1.58;;;;;;;18.47;47.29;101057.00;4861883;29;20072;-59
2023/04/17 08:45:25;;;;;;;4.32;1.42;;;;;;;18.47;47.34;101062.38;4862434;29;20056;-59
2023/04/17 08:47:52;;;;;;;2.25;1.35;;;;;;;18.49;47.29;101065.81;4862498;29;20049;-59
2023/04/17 08:50:20;;;;;;;2.67;1.17;;;;;;;18.48;47.39;101075.69;4861889;29;20381;-58
2023/04/17 08:52:50;;;;;;;2.47;1.10;;;;;;;18.48;47.40;101066.78;4862856;29;20060;-58
2023/04/17 08:55:24;;;;;;;3.55;1.08;;;;;;;18.48;47.52;101067.63;4862762;29;20053;-58
2023/04/17 08:57:55;;;;;;;3.70;1.25;;;;;;;18.49;47.38;101065.81;4862535;29;20116;-58
2023/04/17 09:00:30;;;;;;;2.13;1.13;;;;;;;18.48;47.46;101066.78;4862707;29;20049;-58
2023/04/17 09:03:00;;;;;;;2.35;1.23;;;;;;;18.49;47.60;101073.84;4862359;29;20045;-58
2023/04/17 09:05:29;;;;;;;4.35;1.60;;;;;;;18.49;47.37;101073.84;4862087;29;20053;-57
2023/04/17 09:08:14;;;;;;;3.92;1.60;;;;;;;18.48;47.52;101075.69;4862251;29;20049;-57
2023/04/17 09:10:44;;;;;;;2.40;1.30;;;;;;;18.49;47.51;101072.00;4858884;29;20417;-60
2023/04/17 09:13:13;;;;;;;4.20;1.60;;;;;;;18.49;47.52;101071.16;4843529;29;20054;-60
2023/04/17 09:15:42;;;;;;;2.60;1.42;;;;;;;18.49;47.62;101063.97;4843756;29;20129;-60
2023/04/17 09:18:29;;;;;;;2.58;1.35;;;;;;;18.50;47.74;101072.88;4843527;29;20056;-59
2023/04/17 09:20:58;;;;;;;4.38;1.65;;;;;;;18.50;47.66;101067.50;4843889;29;20045;-59
2023/04/17 09:23:28;;;;;;;3.13;1.40;;;;;;;18.50;47.67;101067.50;4843754;29;20405;-59
2023/04/17 09:26:12;;;;;;;3.85;1.27;;;;;;;18.50;47.73;101063.00;4843371;29;20080;-60
2023/04/17 09:28:40;;;;;;;2.03;1.00;;;;;;;18.51;47.81;101058.47;4843615;29;20050;-59
2023/04/17 09:31:17;;;;;;;4.93;1.58;;;;;;;18.50;47.70;101051.41;4842593;29;20065;-58
2023/04/17 09:34:07;;;;;;;2.70;1.40;;;;;;;18.51;47.86;101054.00;4843654;29;20046;-58
2023/04/17 09:36:37;;;;;;;3.63;1.20;;;;;;;18.51;47.78;101045.94;4843600;29;20408;-58
2023/04/17 09:39:19;;;;;;;4.43;1.13;;;;;;;18.51;47.95;101048.63;4843583;29;20046;-58
2023/04/17 09:41:46;;;;;;;4.07;1.70;;;;;;;18.51;47.83;101045.06;4843720;29;20054;-58
2023/04/17 09:44:25;;;;;;;3.53;1.30;;;;;;;18.51;47.97;101051.31;4842063;29;20064;-58
2023/04/17 09:46:54;;;;;;;2.63;1.20;;;;;;;18.52;47.97;101049.47;4841889;29;20405;-57
2023/04/17 09:49:41;;;;;;;2.40;1.10;;;;;;;18.53;47.87;101056.53;4843083;29;20073;-59
2023/04/17 09:52:09;;;;;;;3.13;1.33;;;;;;;18.52;47.91;101044.13;4843171;29;20060;-60
2023/04/17 09:54:38;;;;;;;1.92;1.00;;;;;;;18.53;48.07;101045.81;4843172;29;20058;-59
2023/04/17 09:57:07;;;;;;;3.15;1.27;;;;;;;18.52;48.03;101041.44;4843005;29;20057;-59
2023/04/17 09:59:47;;;;;;;4.40;1.50;;;;;;;18.54;47.99;101036.78;4843043;29;20069;-58
2023/04/17 10:02:17;;;;;;;1.73;0.93;;;;;;;18.54;48.09;101044.84;4842255;29;20046;-58
2023/04/17 10:04:46;;;;;;;2.97;1.42;;;;;;;18.52;48.08;101031.56;4842920;29;20050;-58
2023/04/17 10:07:15;;;;;;;2.53;1.13;;;;;;;18.54;47.97;101031.44;4842813;29;20053;-57
2023/04/17 10:09:45;;;;;;;6.07;1.45;;;;;;;18.53;48.13;101030.59;4842635;29;20054;-57
2023/04/17 10:12:15;;;;;;;5.32;1.30;;;;;;;18.54;48.11;101028.75;4841868;29;20085;-58
2023/04/17 10:14:45;;;;;;;3.88;1.35;;;;;;;18.54;47.91;101029.59;4843191;29;20397;-58
2023/04/17 10:17:30;;;;;;;2.72;1.02;;;;;;;18.55;48.05;101027.75;4842910;29;20061;-58
2023/04/17 10:20:16;;;;;;;3.03;1.00;;;;;;;18.55;48.07;101022.41;4842978;29;20400;-58
2023/04/17 10:22:44;;;;;;;2.92;1.27;;;;;;;18.55;48.12;101025.09;4849108;29;20053;-58
2023/04/17 10:25:14;;;;;;;2.80;1.33;;;;;;;18.55;48.09;101030.44;4842684;29;20628;-57
2023/04/17 10:27:44;;;;;;;1.90;0.93;;;;;;;18.56;48.09;101025.97;4843058;29;20050;-57
2023/04/17 10:30:13;;;;;;;3.17;1.35;;;;;;;18.55;48.13;101019.72;4842770;29;20053;-59
2023/04/17 10:33:23;;;;;;;2.10;1.17;;;;;;;18.56;48.25;101026.81;4842848;29;20093;-59
2023/04/17 10:35:51;;;;;;;2.72;1.27;;;;;;;18.56;48.21;101024.13;4846091;29;20069;-59
2023/04/17 10:38:37;;;;;;;2.08;1.02;;;;;;;18.57;48.16;101022.31;4860803;29;20052;-59
2023/04/17 10:41:08;;;;;;;3.20;1.42;;;;;;;18.58;48.26;101021.31;4860530;29;20049;-58
2023/04/17 10:43:40;;;;;;;2.33;1.27;;;;;;;18.57;48.14;101017.78;4860874;29;20396;-58
2023/04/17 10:46:09;;;;;;;3.00;1.10;;;;;;;18.57;48.12;101017.78;4860753;29;20404;-57
2023/04/17 10:48:51;;;;;;;2.30;1.05;;;;;;;18.57;48.29;101015.09;4861130;29;20057;-58
2023/04/17 10:51:39;;;;;;;3.25;1.30;;;;;;;18.58;48.39;101014.13;4861204;29;20068;-58
2023/04/17 10:54:09;;;;;;;2.30;1.10;;;;;;;18.57;48.22;101009.75;4861110;29;20061;-58
2023/04/17 10:56:47;;;;;;;2.58;1.08;;;;;;;18.58;48.11;101007.91;4861183;29;20060;-56
2023/04/17 10:59:18;;;;;;;3.72;1.67;;;;;;;18.58;48.33;101003.41;4861058;29;20058;-58
2023/04/17 11:01:48;;;;;;;2.60;1.50;;;;;;;18.57;48.31;101007.06;4860719;29;20045;-58
2023/04/17 11:04:24;;;;;;;3.33;1.27;;;;;;;18.59;48.32;101009.59;4860645;29;20045;-57
2023/04/17 11:06:53;;;;;;;2.65;1.15;;;;;;;18.59;48.28;101005.09;4860457;29;20060;-58
2023/04/17 11:09:21;;;;;;;1.83;1.10;;;;;;;18.58;48.36;101005.22;4859730;29;20061;-57
2023/04/17 11:11:49;;;;;;;1.90;0.90;;;;;;;18.59;48.23;101012.28;4860558;29;20503;-57
2023/04/17 11:14:19;;;;;;;2.05;1.20;;;;;;;18.59;48.29;101005.09;4864464;29;20068;-57
2023/04/17 11:16:48;;;;;;;4.70;1.17;;;;;;;18.58;48.39;101007.91;4864509;29;20057;-57
2023/04/17 11:19:21;;;;;;;2.83;1.52;;;;;;;18.59;48.38;101010.47;4864533;29;20053;-59
2023/04/17 11:21:57;;;;;;;2.28;1.20;;;;;;;18.58;48.34;101008.75;4864666;29;20053;-59
2023/04/17 11:24:26;;;;;;;2.20;0.95;;;;;;;18.59;48.44;101001.56;4864558;29;20046;-59
2023/04/17 11:26:55;;;;;;;3.03;1.00;;;;;;;18.60;48.34;101004.16;4864180;29;20053;-59
2023/04/17 11:29:23;;;;;;;4.43;1.10;;;;;;;18.59;48.42;101002.41;4864412;29;20056;-58
2023/04/17 11:31:53;;;;;;;1.73;0.80;;;;;;;18.60;48.29;101004.16;4863765;29;20487;-58
2023/04/17 11:34:21;;;;;;;2.83;1.30;;;;;;;18.60;48.63;101001.47;4864052;29;20056;-57
2023/04/17 11:36:56;;;;;;;2.22;1.13;;;;;;;18.61;48.75;101013.03;4863870;29;20384;-57